sensor_id;sensor_type;location;lat;lon;timestamp;P1;durP1;ratioP1;P2;durP2;ratioP2
22213;SDS011;11276;43.566;27.824;2022-07-06T00:01:54;12.67;;;4.30;;
22213;SDS011;11276;43.566;27.824;2022-07-06T00:04:21;12.00;;;4.13;;
22213;SDS011;11276;43.566;27.824;2022-07-06T00:06:48;8.47;;;3.77;;
22213;SDS011;11276;43.566;27.824;2022-07-06T00:09:15;10.17;;;3.93;;
22213;SDS011;11276;43.566;27.824;2022-07-06T00:11:42;11.50;;;4.00;;
22213;SDS011;11276;43.566;27.824;2022-07-06T00:14:09;8.33;;;4.00;;
22213;SDS011;11276;43.566;27.824;2022-07-06T00:16:36;8.97;;;4.00;;
22213;SDS011;11276;43.566;27.824;2022-07-06T00:19:03;7.53;;;4.43;;
22213;SDS011;11276;43.566;27.824;2022-07-06T00:21:29;13.43;;;4.20;;
22213;SDS011;11276;43.566;27.824;2022-07-06T00:23:56;9.00;;;4.50;;
22213;SDS011;11276;43.566;27.824;2022-07-06T00:26:23;9.10;;;4.60;;
22213;SDS011;11276;43.566;27.824;2022-07-06T00:28:50;11.00;;;4.57;;
22213;SDS011;11276;43.566;27.824;2022-07-06T00:31:17;9.23;;;4.67;;
22213;SDS011;11276;43.566;27.824;2022-07-06T00:33:43;6.47;;;3.73;;
22213;SDS011;11276;43.566;27.824;2022-07-06T00:36:10;12.20;;;4.63;;
22213;SDS011;11276;43.566;27.824;2022-07-06T00:38:37;8.33;;;3.67;;
22213;SDS011;11276;43.566;27.824;2022-07-06T00:41:04;9.53;;;4.60;;
22213;SDS011;11276;43.566;27.824;2022-07-06T00:43:46;8.17;;;4.70;;
22213;SDS011;11276;43.566;27.824;2022-07-06T00:46:13;13.43;;;4.83;;
22213;SDS011;11276;43.566;27.824;2022-07-06T00:48:40;7.20;;;4.30;;
22213;SDS011;11276;43.566;27.824;2022-07-06T00:51:07;9.03;;;4.07;;
22213;SDS011;11276;43.566;27.824;2022-07-06T00:53:34;5.90;;;3.43;;
22213;SDS011;11276;43.566;27.824;2022-07-06T00:56:01;9.10;;;4.50;;
22213;SDS011;11276;43.566;27.824;2022-07-06T00:58:28;9.50;;;4.60;;
22213;SDS011;11276;43.566;27.824;2022-07-06T01:00:54;7.43;;;4.10;;
22213;SDS011;11276;43.566;27.824;2022-07-06T01:03:21;9.77;;;4.13;;
22213;SDS011;11276;43.566;27.824;2022-07-06T01:05:48;7.27;;;4.10;;
22213;SDS011;11276;43.566;27.824;2022-07-06T01:08:16;11.03;;;4.23;;
22213;SDS011;11276;43.566;27.824;2022-07-06T01:10:43;7.23;;;4.03;;
22213;SDS011;11276;43.566;27.824;2022-07-06T01:13:10;9.30;;;4.33;;
22213;SDS011;11276;43.566;27.824;2022-07-06T01:15:37;7.80;;;4.37;;
22213;SDS011;11276;43.566;27.824;2022-07-06T01:18:04;9.83;;;4.07;;
22213;SDS011;11276;43.566;27.824;2022-07-06T01:20:31;7.87;;;4.30;;
22213;SDS011;11276;43.566;27.824;2022-07-06T01:22:58;9.40;;;3.97;;
22213;SDS011;11276;43.566;27.824;2022-07-06T01:25:25;8.67;;;4.10;;
22213;SDS011;11276;43.566;27.824;2022-07-06T01:27:52;10.13;;;4.00;;
22213;SDS011;11276;43.566;27.824;2022-07-06T01:30:19;9.60;;;4.33;;
22213;SDS011;11276;43.566;27.824;2022-07-06T01:32:46;10.23;;;4.17;;
22213;SDS011;11276;43.566;27.824;2022-07-06T01:35:14;9.30;;;4.00;;
22213;SDS011;11276;43.566;27.824;2022-07-06T01:37:42;9.50;;;3.80;;
22213;SDS011;11276;43.566;27.824;2022-07-06T01:40:10;7.77;;;4.23;;
22213;SDS011;11276;43.566;27.824;2022-07-06T01:42:38;9.93;;;4.23;;
22213;SDS011;11276;43.566;27.824;2022-07-06T01:45:06;8.63;;;4.00;;
22213;SDS011;11276;43.566;27.824;2022-07-06T01:47:33;7.70;;;3.73;;
22213;SDS011;11276;43.566;27.824;2022-07-06T01:50:01;6.70;;;3.93;;
22213;SDS011;11276;43.566;27.824;2022-07-06T01:52:30;7.47;;;4.17;;
22213;SDS011;11276;43.566;27.824;2022-07-06T01:54:57;8.07;;;3.80;;
22213;SDS011;11276;43.566;27.824;2022-07-06T01:57:23;7.43;;;4.27;;
22213;SDS011;11276;43.566;27.824;2022-07-06T01:59:50;7.10;;;3.67;;
22213;SDS011;11276;43.566;27.824;2022-07-06T02:02:17;8.90;;;4.50;;
22213;SDS011;11276;43.566;27.824;2022-07-06T02:04:45;7.90;;;4.00;;
22213;SDS011;11276;43.566;27.824;2022-07-06T02:07:12;9.57;;;4.20;;
22213;SDS011;11276;43.566;27.824;2022-07-06T02:09:38;9.13;;;4.17;;
22213;SDS011;11276;43.566;27.824;2022-07-06T02:12:05;6.67;;;4.00;;
22213;SDS011;11276;43.566;27.824;2022-07-06T02:14:32;6.60;;;4.20;;
22213;SDS011;11276;43.566;27.824;2022-07-06T02:16:59;12.80;;;3.60;;
22213;SDS011;11276;43.566;27.824;2022-07-06T02:19:25;6.03;;;3.87;;
22213;SDS011;11276;43.566;27.824;2022-07-06T02:21:52;9.80;;;4.63;;
22213;SDS011;11276;43.566;27.824;2022-07-06T02:24:19;13.27;;;4.40;;
22213;SDS011;11276;43.566;27.824;2022-07-06T02:26:46;6.00;;;3.63;;
22213;SDS011;11276;43.566;27.824;2022-07-06T02:29:13;6.93;;;3.80;;
22213;SDS011;11276;43.566;27.824;2022-07-06T02:31:39;9.03;;;4.30;;
22213;SDS011;11276;43.566;27.824;2022-07-06T02:34:06;6.77;;;3.93;;
22213;SDS011;11276;43.566;27.824;2022-07-06T02:36:33;8.90;;;4.53;;
22213;SDS011;11276;43.566;27.824;2022-07-06T02:39:00;8.93;;;4.50;;
22213;SDS011;11276;43.566;27.824;2022-07-06T02:41:26;8.27;;;4.63;;
22213;SDS011;11276;43.566;27.824;2022-07-06T02:43:53;12.63;;;5.00;;
22213;SDS011;11276;43.566;27.824;2022-07-06T02:46:20;7.10;;;4.03;;
22213;SDS011;11276;43.566;27.824;2022-07-06T02:48:47;8.60;;;4.50;;
22213;SDS011;11276;43.566;27.824;2022-07-06T02:51:13;8.13;;;4.33;;
22213;SDS011;11276;43.566;27.824;2022-07-06T02:53:40;7.87;;;4.47;;
22213;SDS011;11276;43.566;27.824;2022-07-06T02:56:07;7.50;;;3.60;;
22213;SDS011;11276;43.566;27.824;2022-07-06T02:58:34;7.63;;;3.97;;
22213;SDS011;11276;43.566;27.824;2022-07-06T03:01:00;7.77;;;4.40;;
22213;SDS011;11276;43.566;27.824;2022-07-06T03:03:27;13.40;;;5.03;;
22213;SDS011;11276;43.566;27.824;2022-07-06T03:05:54;13.20;;;4.27;;
22213;SDS011;11276;43.566;27.824;2022-07-06T03:08:20;11.07;;;5.00;;
22213;SDS011;11276;43.566;27.824;2022-07-06T03:10:47;20.83;;;5.63;;
22213;SDS011;11276;43.566;27.824;2022-07-06T03:13:14;11.97;;;4.80;;
22213;SDS011;11276;43.566;27.824;2022-07-06T03:15:41;9.37;;;4.70;;
22213;SDS011;11276;43.566;27.824;2022-07-06T03:18:08;11.10;;;4.63;;
22213;SDS011;11276;43.566;27.824;2022-07-06T03:20:34;7.33;;;4.30;;
22213;SDS011;11276;43.566;27.824;2022-07-06T03:23:01;15.30;;;4.73;;
22213;SDS011;11276;43.566;27.824;2022-07-06T03:25:28;9.10;;;4.93;;
22213;SDS011;11276;43.566;27.824;2022-07-06T03:27:55;9.53;;;4.00;;
22213;SDS011;11276;43.566;27.824;2022-07-06T03:30:21;24.17;;;5.90;;
22213;SDS011;11276;43.566;27.824;2022-07-06T03:32:48;10.30;;;4.83;;
22213;SDS011;11276;43.566;27.824;2022-07-06T03:35:15;13.87;;;4.80;;
22213;SDS011;11276;43.566;27.824;2022-07-06T03:37:42;12.20;;;5.27;;
22213;SDS011;11276;43.566;27.824;2022-07-06T03:40:09;12.17;;;5.50;;
22213;SDS011;11276;43.566;27.824;2022-07-06T03:42:36;13.93;;;5.63;;
22213;SDS011;11276;43.566;27.824;2022-07-06T03:45:04;10.13;;;4.60;;
22213;SDS011;11276;43.566;27.824;2022-07-06T03:47:31;10.67;;;5.13;;
22213;SDS011;11276;43.566;27.824;2022-07-06T03:49:58;11.23;;;5.40;;
22213;SDS011;11276;43.566;27.824;2022-07-06T03:52:25;11.90;;;4.77;;
22213;SDS011;11276;43.566;27.824;2022-07-06T03:54:52;15.17;;;5.70;;
22213;SDS011;11276;43.566;27.824;2022-07-06T03:57:19;13.13;;;5.40;;
22213;SDS011;11276;43.566;27.824;2022-07-06T03:59:45;12.70;;;5.17;;
22213;SDS011;11276;43.566;27.824;2022-07-06T04:02:12;8.70;;;4.57;;
22213;SDS011;11276;43.566;27.824;2022-07-06T04:04:39;10.60;;;5.77;;
22213;SDS011;11276;43.566;27.824;2022-07-06T04:07:06;26.70;;;6.97;;
22213;SDS011;11276;43.566;27.824;2022-07-06T04:09:32;15.93;;;5.83;;
22213;SDS011;11276;43.566;27.824;2022-07-06T04:11:59;18.60;;;5.80;;
22213;SDS011;11276;43.566;27.824;2022-07-06T04:14:26;14.20;;;5.30;;
22213;SDS011;11276;43.566;27.824;2022-07-06T04:16:53;7.90;;;4.63;;
22213;SDS011;11276;43.566;27.824;2022-07-06T04:19:20;12.13;;;4.70;;
22213;SDS011;11276;43.566;27.824;2022-07-06T04:21:47;12.67;;;4.27;;
22213;SDS011;11276;43.566;27.824;2022-07-06T04:24:14;9.83;;;4.57;;
22213;SDS011;11276;43.566;27.824;2022-07-06T04:26:41;14.93;;;4.63;;
22213;SDS011;11276;43.566;27.824;2022-07-06T04:29:08;11.40;;;5.10;;
22213;SDS011;11276;43.566;27.824;2022-07-06T04:31:34;14.20;;;5.60;;
22213;SDS011;11276;43.566;27.824;2022-07-06T04:34:01;13.60;;;5.40;;
22213;SDS011;11276;43.566;27.824;2022-07-06T04:36:28;16.53;;;5.90;;
22213;SDS011;11276;43.566;27.824;2022-07-06T04:38:55;16.47;;;5.13;;
22213;SDS011;11276;43.566;27.824;2022-07-06T04:41:21;11.60;;;5.23;;
22213;SDS011;11276;43.566;27.824;2022-07-06T04:43:48;10.90;;;5.70;;
22213;SDS011;11276;43.566;27.824;2022-07-06T04:46:15;18.50;;;5.60;;
22213;SDS011;11276;43.566;27.824;2022-07-06T04:48:41;10.80;;;5.57;;
22213;SDS011;11276;43.566;27.824;2022-07-06T04:51:08;22.77;;;7.00;;
22213;SDS011;11276;43.566;27.824;2022-07-06T04:53:35;17.40;;;6.60;;
22213;SDS011;11276;43.566;27.824;2022-07-06T04:56:03;18.03;;;5.93;;
22213;SDS011;11276;43.566;27.824;2022-07-06T04:58:30;22.13;;;5.83;;
22213;SDS011;11276;43.566;27.824;2022-07-06T05:00:57;19.97;;;7.00;;
22213;SDS011;11276;43.566;27.824;2022-07-06T05:03:24;18.93;;;6.20;;
22213;SDS011;11276;43.566;27.824;2022-07-06T05:05:50;14.77;;;5.90;;
22213;SDS011;11276;43.566;27.824;2022-07-06T05:08:19;14.10;;;5.37;;
22213;SDS011;11276;43.566;27.824;2022-07-06T05:10:46;20.00;;;6.00;;
22213;SDS011;11276;43.566;27.824;2022-07-06T05:13:15;16.33;;;5.97;;
22213;SDS011;11276;43.566;27.824;2022-07-06T05:15:41;15.30;;;6.33;;
22213;SDS011;11276;43.566;27.824;2022-07-06T05:18:08;17.80;;;5.77;;
22213;SDS011;11276;43.566;27.824;2022-07-06T05:20:35;17.43;;;6.80;;
22213;SDS011;11276;43.566;27.824;2022-07-06T05:23:02;15.40;;;6.60;;
22213;SDS011;11276;43.566;27.824;2022-07-06T05:25:28;31.37;;;7.40;;
22213;SDS011;11276;43.566;27.824;2022-07-06T05:27:56;23.63;;;6.60;;
22213;SDS011;11276;43.566;27.824;2022-07-06T05:30:23;16.33;;;6.17;;
22213;SDS011;11276;43.566;27.824;2022-07-06T05:32:49;15.53;;;6.47;;
22213;SDS011;11276;43.566;27.824;2022-07-06T05:35:16;16.83;;;6.10;;
22213;SDS011;11276;43.566;27.824;2022-07-06T05:38:03;14.27;;;6.03;;
22213;SDS011;11276;43.566;27.824;2022-07-06T05:40:31;18.03;;;6.60;;
22213;SDS011;11276;43.566;27.824;2022-07-06T05:42:58;22.30;;;6.97;;
22213;SDS011;11276;43.566;27.824;2022-07-06T05:45:24;14.47;;;5.60;;
22213;SDS011;11276;43.566;27.824;2022-07-06T05:47:51;11.63;;;5.57;;
22213;SDS011;11276;43.566;27.824;2022-07-06T05:50:37;17.33;;;5.20;;
22213;SDS011;11276;43.566;27.824;2022-07-06T05:53:04;12.90;;;5.07;;
22213;SDS011;11276;43.566;27.824;2022-07-06T05:55:36;17.43;;;5.23;;
22213;SDS011;11276;43.566;27.824;2022-07-06T05:58:03;11.97;;;4.87;;
22213;SDS011;11276;43.566;27.824;2022-07-06T06:00:30;8.77;;;4.57;;
22213;SDS011;11276;43.566;27.824;2022-07-06T06:02:57;11.40;;;5.53;;
22213;SDS011;11276;43.566;27.824;2022-07-06T06:05:25;9.03;;;4.43;;
22213;SDS011;11276;43.566;27.824;2022-07-06T06:07:52;8.07;;;4.20;;
22213;SDS011;11276;43.566;27.824;2022-07-06T06:10:19;12.30;;;4.70;;
22213;SDS011;11276;43.566;27.824;2022-07-06T06:12:48;10.67;;;4.43;;
22213;SDS011;11276;43.566;27.824;2022-07-06T06:15:15;9.10;;;4.43;;
22213;SDS011;11276;43.566;27.824;2022-07-06T06:17:42;13.13;;;4.20;;
22213;SDS011;11276;43.566;27.824;2022-07-06T06:20:10;10.00;;;4.53;;
22213;SDS011;11276;43.566;27.824;2022-07-06T06:22:49;15.20;;;3.80;;
22213;SDS011;11276;43.566;27.824;2022-07-06T06:25:18;9.30;;;3.70;;
22213;SDS011;11276;43.566;27.824;2022-07-06T06:27:53;10.70;;;4.13;;
22213;SDS011;11276;43.566;27.824;2022-07-06T06:30:20;13.80;;;4.20;;
22213;SDS011;11276;43.566;27.824;2022-07-06T06:32:47;12.77;;;5.00;;
22213;SDS011;11276;43.566;27.824;2022-07-06T06:35:14;13.93;;;4.53;;
22213;SDS011;11276;43.566;27.824;2022-07-06T06:37:41;9.80;;;4.83;;
22213;SDS011;11276;43.566;27.824;2022-07-06T06:40:08;12.80;;;4.33;;
22213;SDS011;11276;43.566;27.824;2022-07-06T06:42:35;11.60;;;4.30;;
22213;SDS011;11276;43.566;27.824;2022-07-06T06:45:04;21.83;;;5.30;;
22213;SDS011;11276;43.566;27.824;2022-07-06T06:47:32;11.00;;;4.33;;
22213;SDS011;11276;43.566;27.824;2022-07-06T06:49:58;9.57;;;4.10;;
22213;SDS011;11276;43.566;27.824;2022-07-06T06:52:25;11.60;;;4.00;;
22213;SDS011;11276;43.566;27.824;2022-07-06T06:55:07;8.47;;;3.50;;
22213;SDS011;11276;43.566;27.824;2022-07-06T06:57:35;7.53;;;3.83;;
22213;SDS011;11276;43.566;27.824;2022-07-06T07:00:03;8.03;;;3.80;;
22213;SDS011;11276;43.566;27.824;2022-07-06T07:02:30;10.00;;;3.80;;
22213;SDS011;11276;43.566;27.824;2022-07-06T07:04:57;10.57;;;4.00;;
22213;SDS011;11276;43.566;27.824;2022-07-06T07:07:24;8.93;;;4.07;;
22213;SDS011;11276;43.566;27.824;2022-07-06T07:09:51;8.20;;;3.60;;
22213;SDS011;11276;43.566;27.824;2022-07-06T07:12:18;11.33;;;3.70;;
22213;SDS011;11276;43.566;27.824;2022-07-06T07:14:44;9.30;;;4.20;;
22213;SDS011;11276;43.566;27.824;2022-07-06T07:17:11;12.90;;;3.77;;
22213;SDS011;11276;43.566;27.824;2022-07-06T07:19:38;10.17;;;4.17;;
22213;SDS011;11276;43.566;27.824;2022-07-06T07:22:06;8.00;;;4.00;;
22213;SDS011;11276;43.566;27.824;2022-07-06T07:24:33;10.80;;;4.30;;
22213;SDS011;11276;43.566;27.824;2022-07-06T07:27:00;10.50;;;4.07;;
22213;SDS011;11276;43.566;27.824;2022-07-06T07:29:27;9.30;;;3.90;;
22213;SDS011;11276;43.566;27.824;2022-07-06T07:31:54;8.10;;;4.00;;
22213;SDS011;11276;43.566;27.824;2022-07-06T07:34:21;7.23;;;3.37;;
22213;SDS011;11276;43.566;27.824;2022-07-06T07:36:47;10.13;;;3.93;;
22213;SDS011;11276;43.566;27.824;2022-07-06T07:39:14;10.50;;;3.43;;
22213;SDS011;11276;43.566;27.824;2022-07-06T07:41:41;10.67;;;3.60;;
22213;SDS011;11276;43.566;27.824;2022-07-06T07:44:08;9.63;;;3.77;;
22213;SDS011;11276;43.566;27.824;2022-07-06T07:46:35;8.77;;;3.83;;
22213;SDS011;11276;43.566;27.824;2022-07-06T07:49:02;11.90;;;3.83;;
22213;SDS011;11276;43.566;27.824;2022-07-06T07:51:29;6.77;;;3.60;;
22213;SDS011;11276;43.566;27.824;2022-07-06T07:53:55;11.50;;;4.07;;
22213;SDS011;11276;43.566;27.824;2022-07-06T07:56:22;6.87;;;3.40;;
22213;SDS011;11276;43.566;27.824;2022-07-06T07:58:49;11.60;;;3.23;;
22213;SDS011;11276;43.566;27.824;2022-07-06T08:01:16;12.87;;;4.00;;
22213;SDS011;11276;43.566;27.824;2022-07-06T08:03:42;11.63;;;4.00;;
22213;SDS011;11276;43.566;27.824;2022-07-06T08:06:09;7.80;;;3.60;;
22213;SDS011;11276;43.566;27.824;2022-07-06T08:08:36;8.10;;;3.70;;
22213;SDS011;11276;43.566;27.824;2022-07-06T08:11:03;7.40;;;3.70;;
22213;SDS011;11276;43.566;27.824;2022-07-06T08:13:45;9.80;;;4.13;;
22213;SDS011;11276;43.566;27.824;2022-07-06T08:16:12;7.47;;;3.70;;
22213;SDS011;11276;43.566;27.824;2022-07-06T08:18:39;8.23;;;3.50;;
22213;SDS011;11276;43.566;27.824;2022-07-06T08:21:05;12.97;;;3.70;;
22213;SDS011;11276;43.566;27.824;2022-07-06T08:23:53;9.17;;;3.60;;
22213;SDS011;11276;43.566;27.824;2022-07-06T08:26:21;7.10;;;3.10;;
22213;SDS011;11276;43.566;27.824;2022-07-06T08:28:49;8.90;;;3.50;;
22213;SDS011;11276;43.566;27.824;2022-07-06T08:31:16;8.43;;;3.60;;
22213;SDS011;11276;43.566;27.824;2022-07-06T08:34:04;8.67;;;3.53;;
22213;SDS011;11276;43.566;27.824;2022-07-06T08:36:30;9.90;;;3.47;;
22213;SDS011;11276;43.566;27.824;2022-07-06T08:38:57;10.70;;;3.57;;
22213;SDS011;11276;43.566;27.824;2022-07-06T08:41:25;5.57;;;3.43;;
22213;SDS011;11276;43.566;27.824;2022-07-06T08:43:56;15.43;;;3.77;;
22213;SDS011;11276;43.566;27.824;2022-07-06T08:46:23;7.87;;;3.63;;
22213;SDS011;11276;43.566;27.824;2022-07-06T08:48:50;6.30;;;3.50;;
22213;SDS011;11276;43.566;27.824;2022-07-06T08:51:17;8.57;;;3.90;;
22213;SDS011;11276;43.566;27.824;2022-07-06T08:53:44;8.57;;;3.80;;
22213;SDS011;11276;43.566;27.824;2022-07-06T08:56:12;6.40;;;3.40;;
22213;SDS011;11276;43.566;27.824;2022-07-06T08:58:39;7.40;;;3.17;;
22213;SDS011;11276;43.566;27.824;2022-07-06T09:01:09;11.73;;;4.30;;
22213;SDS011;11276;43.566;27.824;2022-07-06T09:03:38;7.90;;;3.40;;
22213;SDS011;11276;43.566;27.824;2022-07-06T09:06:07;10.27;;;3.90;;
22213;SDS011;11276;43.566;27.824;2022-07-06T09:08:35;11.80;;;4.63;;
22213;SDS011;11276;43.566;27.824;2022-07-06T09:11:06;10.10;;;3.77;;
22213;SDS011;11276;43.566;27.824;2022-07-06T09:13:33;7.67;;;4.23;;
22213;SDS011;11276;43.566;27.824;2022-07-06T09:16:12;13.63;;;4.40;;
22213;SDS011;11276;43.566;27.824;2022-07-06T09:19:00;6.60;;;3.80;;
22213;SDS011;11276;43.566;27.824;2022-07-06T09:21:29;14.53;;;4.30;;
22213;SDS011;11276;43.566;27.824;2022-07-06T09:24:07;11.73;;;4.20;;
22213;SDS011;11276;43.566;27.824;2022-07-06T09:26:36;12.90;;;4.20;;
22213;SDS011;11276;43.566;27.824;2022-07-06T09:29:03;9.50;;;4.20;;
22213;SDS011;11276;43.566;27.824;2022-07-06T09:31:30;11.30;;;4.60;;
22213;SDS011;11276;43.566;27.824;2022-07-06T09:33:58;10.90;;;4.33;;
22213;SDS011;11276;43.566;27.824;2022-07-06T09:39:31;12.90;;;4.20;;
22213;SDS011;11276;43.566;27.824;2022-07-06T09:41:58;13.83;;;4.67;;
22213;SDS011;11276;43.566;27.824;2022-07-06T09:44:27;13.67;;;4.50;;
22213;SDS011;11276;43.566;27.824;2022-07-06T09:46:56;8.03;;;4.07;;
22213;SDS011;11276;43.566;27.824;2022-07-06T09:49:27;14.10;;;5.37;;
22213;SDS011;11276;43.566;27.824;2022-07-06T09:51:56;13.03;;;4.70;;
22213;SDS011;11276;43.566;27.824;2022-07-06T09:54:24;18.60;;;4.30;;
22213;SDS011;11276;43.566;27.824;2022-07-06T09:56:52;7.77;;;3.93;;
22213;SDS011;11276;43.566;27.824;2022-07-06T09:59:20;10.27;;;4.20;;
22213;SDS011;11276;43.566;27.824;2022-07-06T10:01:56;9.10;;;3.90;;
22213;SDS011;11276;43.566;27.824;2022-07-06T10:04:24;16.17;;;5.00;;
22213;SDS011;11276;43.566;27.824;2022-07-06T10:06:53;8.00;;;4.27;;
22213;SDS011;11276;43.566;27.824;2022-07-06T10:09:22;13.00;;;4.30;;
22213;SDS011;11276;43.566;27.824;2022-07-06T10:11:51;10.50;;;3.50;;
22213;SDS011;11276;43.566;27.824;2022-07-06T10:14:29;10.03;;;4.30;;
22213;SDS011;11276;43.566;27.824;2022-07-06T10:16:58;9.90;;;4.23;;
22213;SDS011;11276;43.566;27.824;2022-07-06T10:19:30;10.03;;;4.00;;
22213;SDS011;11276;43.566;27.824;2022-07-06T10:21:59;8.40;;;4.23;;
22213;SDS011;11276;43.566;27.824;2022-07-06T10:24:28;11.20;;;4.30;;
22213;SDS011;11276;43.566;27.824;2022-07-06T10:26:56;11.63;;;4.93;;
22213;SDS011;11276;43.566;27.824;2022-07-06T10:29:23;17.30;;;4.47;;
22213;SDS011;11276;43.566;27.824;2022-07-06T10:31:51;11.83;;;4.87;;
22213;SDS011;11276;43.566;27.824;2022-07-06T10:34:20;8.17;;;4.10;;
22213;SDS011;11276;43.566;27.824;2022-07-06T10:36:50;11.13;;;4.47;;
22213;SDS011;11276;43.566;27.824;2022-07-06T10:39:38;9.80;;;4.87;;
22213;SDS011;11276;43.566;27.824;2022-07-06T10:42:39;12.50;;;4.60;;
22213;SDS011;11276;43.566;27.824;2022-07-06T10:45:12;9.57;;;4.20;;
22213;SDS011;11276;43.566;27.824;2022-07-06T10:47:41;15.10;;;4.40;;
22213;SDS011;11276;43.566;27.824;2022-07-06T10:50:08;13.80;;;4.07;;
22213;SDS011;11276;43.566;27.824;2022-07-06T10:53:40;9.87;;;4.03;;
22213;SDS011;11276;43.566;27.824;2022-07-06T10:55:39;24.10;;;5.23;;
22213;SDS011;11276;43.566;27.824;2022-07-06T10:58:09;12.97;;;4.90;;
22213;SDS011;11276;43.566;27.824;2022-07-06T11:00:53;13.20;;;4.33;;
22213;SDS011;11276;43.566;27.824;2022-07-06T11:03:31;11.67;;;4.23;;
22213;SDS011;11276;43.566;27.824;2022-07-06T11:08:51;13.13;;;4.40;;
22213;SDS011;11276;43.566;27.824;2022-07-06T11:14:03;9.80;;;3.97;;
22213;SDS011;11276;43.566;27.824;2022-07-06T11:16:38;10.33;;;4.00;;
22213;SDS011;11276;43.566;27.824;2022-07-06T11:19:15;14.70;;;4.40;;
22213;SDS011;11276;43.566;27.824;2022-07-06T11:24:14;8.33;;;4.30;;
22213;SDS011;11276;43.566;27.824;2022-07-06T11:26:43;14.30;;;4.30;;
22213;SDS011;11276;43.566;27.824;2022-07-06T11:29:12;8.80;;;3.67;;
22213;SDS011;11276;43.566;27.824;2022-07-06T11:31:44;10.27;;;4.30;;
22213;SDS011;11276;43.566;27.824;2022-07-06T11:34:13;9.20;;;4.50;;
22213;SDS011;11276;43.566;27.824;2022-07-06T11:36:44;10.57;;;3.40;;
22213;SDS011;11276;43.566;27.824;2022-07-06T11:39:11;10.83;;;3.83;;
22213;SDS011;11276;43.566;27.824;2022-07-06T11:41:38;12.67;;;3.70;;
22213;SDS011;11276;43.566;27.824;2022-07-06T11:44:05;11.00;;;3.80;;
22213;SDS011;11276;43.566;27.824;2022-07-06T11:46:33;8.90;;;4.10;;
22213;SDS011;11276;43.566;27.824;2022-07-06T11:49:02;9.70;;;4.10;;
22213;SDS011;11276;43.566;27.824;2022-07-06T11:51:31;14.20;;;3.93;;
22213;SDS011;11276;43.566;27.824;2022-07-06T11:54:00;10.10;;;4.00;;
22213;SDS011;11276;43.566;27.824;2022-07-06T11:56:33;9.33;;;4.47;;
22213;SDS011;11276;43.566;27.824;2022-07-06T11:59:01;8.77;;;3.87;;
22213;SDS011;11276;43.566;27.824;2022-07-06T12:01:29;12.10;;;4.50;;
22213;SDS011;11276;43.566;27.824;2022-07-06T12:04:00;10.90;;;4.10;;
22213;SDS011;11276;43.566;27.824;2022-07-06T12:06:30;8.70;;;3.67;;
22213;SDS011;11276;43.566;27.824;2022-07-06T12:08:57;9.77;;;3.63;;
22213;SDS011;11276;43.566;27.824;2022-07-06T12:11:27;20.43;;;4.93;;
22213;SDS011;11276;43.566;27.824;2022-07-06T12:13:56;14.03;;;3.73;;
22213;SDS011;11276;43.566;27.824;2022-07-06T12:16:34;8.90;;;4.00;;
22213;SDS011;11276;43.566;27.824;2022-07-06T12:19:03;11.93;;;4.03;;
22213;SDS011;11276;43.566;27.824;2022-07-06T12:21:32;13.80;;;4.33;;
22213;SDS011;11276;43.566;27.824;2022-07-06T12:24:00;8.83;;;4.30;;
22213;SDS011;11276;43.566;27.824;2022-07-06T12:26:27;12.60;;;4.30;;
22213;SDS011;11276;43.566;27.824;2022-07-06T12:29:05;10.63;;;4.10;;
22213;SDS011;11276;43.566;27.824;2022-07-06T12:31:37;11.00;;;4.70;;
22213;SDS011;11276;43.566;27.824;2022-07-06T12:34:11;13.40;;;3.93;;
22213;SDS011;11276;43.566;27.824;2022-07-06T12:36:47;9.27;;;3.90;;
22213;SDS011;11276;43.566;27.824;2022-07-06T12:39:16;12.53;;;4.60;;
22213;SDS011;11276;43.566;27.824;2022-07-06T12:41:48;12.23;;;3.60;;
22213;SDS011;11276;43.566;27.824;2022-07-06T12:44:19;11.17;;;4.50;;
22213;SDS011;11276;43.566;27.824;2022-07-06T12:47:09;8.80;;;4.13;;
22213;SDS011;11276;43.566;27.824;2022-07-06T12:49:37;12.77;;;4.27;;
22213;SDS011;11276;43.566;27.824;2022-07-06T12:54:48;14.40;;;4.17;;
22213;SDS011;11276;43.566;27.824;2022-07-06T12:57:23;8.87;;;4.10;;
22213;SDS011;11276;43.566;27.824;2022-07-06T13:02:22;9.50;;;4.10;;
22213;SDS011;11276;43.566;27.824;2022-07-06T13:05:09;8.90;;;4.10;;
22213;SDS011;11276;43.566;27.824;2022-07-06T13:07:39;9.53;;;3.87;;
22213;SDS011;11276;43.566;27.824;2022-07-06T13:10:11;14.73;;;3.90;;
22213;SDS011;11276;43.566;27.824;2022-07-06T13:12:40;10.30;;;4.30;;
22213;SDS011;11276;43.566;27.824;2022-07-06T13:15:07;11.10;;;4.10;;
22213;SDS011;11276;43.566;27.824;2022-07-06T13:17:36;11.97;;;3.97;;
22213;SDS011;11276;43.566;27.824;2022-07-06T13:20:06;8.97;;;3.83;;
22213;SDS011;11276;43.566;27.824;2022-07-06T13:22:34;17.23;;;4.57;;
22213;SDS011;11276;43.566;27.824;2022-07-06T13:25:01;11.43;;;4.10;;
22213;SDS011;11276;43.566;27.824;2022-07-06T13:27:29;10.13;;;3.63;;
22213;SDS011;11276;43.566;27.824;2022-07-06T13:29:56;55.30;;;7.17;;
22213;SDS011;11276;43.566;27.824;2022-07-06T13:32:23;13.00;;;4.13;;
22213;SDS011;11276;43.566;27.824;2022-07-06T13:34:50;11.30;;;4.10;;
22213;SDS011;11276;43.566;27.824;2022-07-06T13:37:19;15.27;;;3.57;;
22213;SDS011;11276;43.566;27.824;2022-07-06T13:39:47;13.03;;;3.70;;
22213;SDS011;11276;43.566;27.824;2022-07-06T13:42:14;9.70;;;3.57;;
22213;SDS011;11276;43.566;27.824;2022-07-06T13:44:41;10.20;;;3.83;;
22213;SDS011;11276;43.566;27.824;2022-07-06T13:47:07;10.03;;;4.00;;
22213;SDS011;11276;43.566;27.824;2022-07-06T13:49:34;13.13;;;4.30;;
22213;SDS011;11276;43.566;27.824;2022-07-06T13:52:01;11.60;;;3.93;;
22213;SDS011;11276;43.566;27.824;2022-07-06T13:54:31;10.40;;;3.60;;
22213;SDS011;11276;43.566;27.824;2022-07-06T13:57:01;12.83;;;3.50;;
22213;SDS011;11276;43.566;27.824;2022-07-06T13:59:29;10.83;;;3.07;;
22213;SDS011;11276;43.566;27.824;2022-07-06T14:01:56;8.97;;;3.40;;
22213;SDS011;11276;43.566;27.824;2022-07-06T14:04:23;7.20;;;3.40;;
22213;SDS011;11276;43.566;27.824;2022-07-06T14:06:50;13.40;;;3.90;;
22213;SDS011;11276;43.566;27.824;2022-07-06T14:09:17;10.70;;;3.13;;
22213;SDS011;11276;43.566;27.824;2022-07-06T14:11:44;11.87;;;3.40;;
22213;SDS011;11276;43.566;27.824;2022-07-06T14:14:10;26.30;;;4.00;;
22213;SDS011;11276;43.566;27.824;2022-07-06T14:16:37;10.33;;;3.20;;
22213;SDS011;11276;43.566;27.824;2022-07-06T14:19:06;12.50;;;3.30;;
22213;SDS011;11276;43.566;27.824;2022-07-06T14:21:33;8.87;;;3.53;;
22213;SDS011;11276;43.566;27.824;2022-07-06T14:24:00;7.63;;;3.50;;
22213;SDS011;11276;43.566;27.824;2022-07-06T14:26:27;10.73;;;4.00;;
22213;SDS011;11276;43.566;27.824;2022-07-06T14:28:53;9.50;;;3.30;;
22213;SDS011;11276;43.566;27.824;2022-07-06T14:31:20;14.10;;;3.83;;
22213;SDS011;11276;43.566;27.824;2022-07-06T14:33:48;8.40;;;2.90;;
22213;SDS011;11276;43.566;27.824;2022-07-06T14:36:15;12.00;;;3.70;;
22213;SDS011;11276;43.566;27.824;2022-07-06T14:38:43;10.60;;;3.23;;
22213;SDS011;11276;43.566;27.824;2022-07-06T14:41:10;10.30;;;3.70;;
22213;SDS011;11276;43.566;27.824;2022-07-06T14:43:36;10.93;;;3.33;;
22213;SDS011;11276;43.566;27.824;2022-07-06T14:46:03;16.23;;;4.00;;
22213;SDS011;11276;43.566;27.824;2022-07-06T14:48:31;11.80;;;3.33;;
22213;SDS011;11276;43.566;27.824;2022-07-06T14:50:58;8.80;;;3.50;;